createdAt,value
2024-02-05T00:00:23.361Z,9.02
2024-02-05T00:01:22.186Z,8.99
2024-02-05T00:02:20.013Z,9.03
2024-02-05T00:03:17.463Z,9.01
2024-02-05T00:04:15.856Z,9.02
2024-02-05T00:05:14.366Z,9.01
2024-02-05T00:06:13.275Z,9.01
2024-02-05T00:07:11.455Z,9.07
2024-02-05T00:08:09.797Z,9.06
2024-02-05T00:09:08.886Z,9.07
2024-02-05T00:10:07.252Z,9.07
2024-02-05T00:11:05.027Z,9.11
2024-02-05T00:12:02.454Z,8.99
2024-02-05T00:12:59.907Z,8.98
2024-02-05T00:13:57.329Z,9.07
2024-02-05T00:14:54.825Z,9.04
2024-02-05T00:15:52.331Z,8.98
2024-02-05T00:16:49.804Z,9.09
2024-02-05T00:17:47.270Z,9.02
2024-02-05T00:18:44.977Z,9.07
2024-02-05T00:19:42.673Z,8.94
2024-02-05T00:20:40.151Z,8.97
2024-02-05T00:21:37.797Z,9.02
2024-02-05T00:22:35.213Z,8.95
2024-02-05T00:23:32.954Z,9.03
2024-02-05T00:24:30.114Z,9.03
2024-02-05T00:25:27.676Z,9.01
2024-02-05T00:26:25.303Z,9.01
2024-02-05T00:27:22.703Z,9.05
2024-02-05T00:28:20.377Z,8.98
2024-02-05T00:29:17.607Z,8.88
2024-02-05T00:30:15.239Z,8.88
2024-02-05T00:31:12.648Z,8.94
2024-02-05T00:32:10.727Z,8.86
2024-02-05T00:33:08.022Z,8.97
2024-02-05T00:34:05.414Z,8.85
2024-02-05T00:35:02.969Z,8.96
2024-02-05T00:36:00.693Z,8.94
2024-02-05T00:36:58.142Z,8.62
2024-02-05T00:37:55.960Z,8.76
2024-02-05T00:38:53.493Z,8.86
2024-02-05T00:39:50.835Z,8.82
2024-02-05T00:40:48.855Z,8.73
2024-02-05T00:41:46.009Z,8.72
2024-02-05T00:42:43.557Z,8.73
2024-02-05T00:43:41.276Z,8.76
2024-02-05T00:44:39.349Z,8.80
2024-02-05T00:45:38.131Z,8.81
2024-02-05T00:46:35.735Z,8.71
2024-02-05T00:47:33.398Z,8.76
2024-02-05T00:48:31.028Z,8.67
2024-02-05T00:49:28.270Z,8.71
2024-02-05T00:50:25.634Z,8.72
2024-02-05T00:51:23.188Z,8.73
2024-02-05T00:52:20.656Z,8.78
2024-02-05T00:53:17.814Z,8.76
2024-02-05T00:54:15.257Z,8.78
2024-02-05T00:55:12.756Z,8.78
2024-02-05T00:56:09.895Z,8.79
2024-02-05T00:57:07.167Z,8.83
2024-02-05T00:58:04.883Z,8.76
2024-02-05T00:59:02.444Z,8.84
2024-02-05T00:59:59.813Z,8.88
2024-02-05T01:00:57.179Z,8.78
2024-02-05T01:01:54.912Z,8.82
2024-02-05T01:02:55.265Z,8.74
2024-02-05T01:03:52.910Z,8.77
2024-02-05T01:04:51.062Z,8.64
2024-02-05T01:05:48.540Z,8.59
2024-02-05T01:06:46.047Z,8.66
2024-02-05T01:07:43.768Z,8.74
2024-02-05T01:08:41.110Z,8.68
2024-02-05T01:09:38.407Z,8.69
2024-02-05T01:10:35.685Z,8.67
2024-02-05T01:11:32.934Z,8.76
2024-02-05T01:12:30.286Z,8.79
2024-02-05T01:13:28.495Z,8.66
2024-02-05T01:14:26.515Z,8.56
2024-02-05T01:15:24.757Z,8.74
2024-02-05T01:16:22.961Z,8.59
2024-02-05T01:17:21.158Z,8.67
2024-02-05T01:18:19.699Z,8.59
2024-02-05T01:19:18.329Z,8.57
2024-02-05T01:20:16.239Z,8.65
2024-02-05T01:21:14.332Z,8.67
2024-02-05T01:22:12.980Z,8.54
2024-02-05T01:23:11.746Z,8.54
2024-02-05T01:24:09.965Z,8.53
2024-02-05T01:25:07.908Z,8.62
2024-02-05T01:26:05.860Z,8.50
2024-02-05T01:27:04.086Z,8.49
2024-02-05T01:28:02.457Z,8.50
2024-02-05T01:29:00.597Z,8.55
2024-02-05T01:29:59.036Z,8.58
2024-02-05T01:30:57.084Z,8.40
2024-02-05T01:31:55.369Z,8.33
2024-02-05T01:32:53.788Z,8.44
2024-02-05T01:33:52.062Z,8.48
2024-02-05T01:34:50.824Z,8.46
2024-02-05T01:35:49.753Z,8.46
2024-02-05T01:36:47.956Z,8.44
2024-02-05T01:37:45.903Z,8.46
2024-02-05T01:38:44.032Z,8.40
2024-02-05T01:39:42.452Z,8.45
2024-02-05T01:40:40.917Z,8.36
2024-02-05T01:41:39.039Z,8.31
2024-02-05T01:42:46.222Z,8.48
2024-02-05T01:43:44.555Z,8.39
2024-02-05T01:44:42.703Z,8.41
2024-02-05T01:45:41.547Z,8.26
2024-02-05T01:46:39.983Z,8.28
2024-02-05T01:47:39.698Z,8.46
2024-02-05T01:48:37.750Z,8.41
2024-02-05T01:49:36.223Z,8.40
2024-02-05T01:50:34.701Z,8.45
2024-02-05T01:51:38.365Z,8.49
2024-02-05T01:52:38.646Z,8.40
2024-02-05T01:53:37.726Z,8.48
2024-02-05T01:54:35.848Z,8.43
2024-02-05T01:55:34.303Z,8.35
2024-02-05T01:56:34.479Z,8.45
2024-02-05T01:57:32.639Z,8.47
2024-02-05T01:58:31.837Z,8.46
2024-02-05T01:59:29.983Z,8.47
2024-02-05T02:00:28.816Z,8.38
2024-02-05T02:01:27.180Z,8.52
2024-02-05T02:02:25.704Z,8.45
2024-02-05T02:03:23.793Z,8.41
2024-02-05T02:04:21.875Z,8.55
2024-02-05T02:05:20.588Z,8.45
2024-02-05T02:06:18.968Z,8.54
2024-02-05T02:07:17.384Z,8.53
2024-02-05T02:08:19.282Z,8.61
2024-02-05T02:09:18.182Z,8.58
2024-02-05T02:10:15.836Z,8.52
2024-02-05T02:11:13.653Z,8.55
2024-02-05T02:12:11.873Z,8.56
2024-02-05T02:13:10.274Z,8.57
2024-02-05T02:14:08.305Z,8.53
2024-02-05T02:15:06.757Z,8.57
2024-02-05T02:16:06.986Z,8.53
2024-02-05T02:17:05.556Z,8.48
2024-02-05T02:18:04.816Z,8.50
2024-02-05T02:19:09.629Z,8.47
2024-02-05T02:20:09.239Z,8.58
2024-02-05T02:21:09.825Z,8.56
2024-02-05T02:22:22.147Z,8.54
2024-02-05T02:23:31.745Z,8.48
2024-02-05T02:24:29.574Z,8.45
2024-02-05T02:25:28.452Z,8.54
2024-02-05T02:26:26.613Z,8.55
2024-02-05T02:27:24.454Z,8.58
2024-02-05T02:28:22.680Z,8.53
2024-02-05T02:29:20.333Z,8.50
2024-02-05T02:30:19.977Z,8.54
2024-02-05T02:31:19.599Z,8.49
2024-02-05T02:32:35.786Z,8.46
2024-02-05T02:34:01.068Z,8.55
2024-02-05T02:35:02.722Z,8.45
2024-02-05T02:36:12.904Z,8.49
2024-02-05T02:37:14.041Z,8.53
2024-02-05T02:38:30.146Z,8.51
2024-02-05T02:39:33.314Z,8.38
2024-02-05T02:40:33.026Z,8.40
2024-02-05T02:41:33.871Z,8.44
2024-02-05T02:42:31.215Z,8.45
2024-02-05T02:43:28.973Z,8.44
2024-02-05T02:44:28.783Z,8.45
2024-02-05T02:45:26.547Z,8.48
2024-02-05T02:46:24.940Z,8.52
2024-02-05T02:47:22.386Z,8.57
2024-02-05T02:48:19.964Z,8.53
2024-02-05T02:49:17.522Z,8.61
2024-02-05T02:50:15.653Z,8.63
2024-02-05T02:51:14.659Z,8.61
2024-02-05T02:52:11.925Z,8.61
2024-02-05T02:53:09.339Z,8.65
2024-02-05T02:54:07.055Z,8.72
2024-02-05T02:55:04.871Z,8.75
2024-02-05T02:56:02.242Z,8.75
2024-02-05T02:56:59.481Z,8.80
2024-02-05T02:57:57.032Z,8.80
2024-02-05T02:58:54.575Z,8.83
2024-02-05T02:59:52.543Z,8.76
2024-02-05T03:00:49.939Z,8.69
2024-02-05T03:01:47.457Z,8.73
2024-02-05T03:02:45.308Z,8.76
2024-02-05T03:03:42.869Z,8.77
2024-02-05T03:04:40.239Z,8.77
2024-02-05T03:05:37.879Z,8.79
2024-02-05T03:06:35.519Z,8.82
2024-02-05T03:07:36.487Z,8.88
2024-02-05T03:08:34.556Z,8.95
2024-02-05T03:09:32.458Z,9.03
2024-02-05T03:10:30.575Z,8.89
2024-02-05T03:11:28.482Z,8.88
2024-02-05T03:12:27.001Z,8.90
2024-02-05T03:13:24.845Z,8.91
2024-02-05T03:14:26.736Z,8.97
2024-02-05T03:15:24.530Z,9.01
2024-02-05T03:16:22.678Z,8.97
2024-02-05T03:17:21.093Z,9.06
2024-02-05T03:18:19.017Z,9.03
2024-02-05T03:19:17.802Z,9.12
2024-02-05T03:20:34.732Z,9.15
2024-02-05T03:21:32.434Z,9.18
2024-02-05T03:22:30.515Z,9.23
2024-02-05T03:23:28.292Z,9.25
2024-02-05T03:24:26.542Z,9.25
2024-02-05T03:25:24.390Z,9.29
2024-02-05T03:26:22.273Z,9.29
2024-02-05T03:27:19.928Z,9.27
2024-02-05T03:28:17.946Z,9.30
2024-02-05T03:29:15.655Z,9.37
2024-02-05T03:30:13.460Z,9.42
2024-02-05T03:31:11.250Z,9.39
2024-02-05T03:32:10.224Z,9.49
2024-02-05T03:33:08.388Z,9.52
2024-02-05T03:34:06.175Z,9.46
2024-02-05T03:35:04.201Z,9.48
2024-02-05T03:36:02.285Z,9.54
2024-02-05T03:37:00.235Z,9.66
2024-02-05T03:37:58.715Z,9.75
2024-02-05T03:38:57.193Z,9.77
2024-02-05T03:39:54.936Z,9.75
2024-02-05T03:40:52.992Z,9.72
2024-02-05T03:41:51.342Z,9.75
2024-02-05T03:42:58.502Z,9.79
2024-02-05T03:43:56.314Z,9.76
2024-02-05T03:44:54.140Z,9.81
2024-02-05T03:45:52.339Z,9.86
2024-02-05T03:46:50.235Z,9.90
2024-02-05T03:47:48.238Z,9.87
2024-02-05T03:48:56.732Z,9.79
2024-02-05T03:49:54.839Z,9.82
2024-02-05T03:50:52.285Z,9.86
2024-02-05T03:51:50.132Z,9.91
2024-02-05T03:52:48.198Z,9.92
2024-02-05T03:53:45.681Z,9.92
2024-02-05T03:54:45.475Z,9.95
2024-02-05T03:55:43.150Z,9.96
2024-02-05T03:56:46.638Z,9.98
2024-02-05T03:57:47.034Z,9.94
2024-02-05T03:58:45.157Z,9.96
2024-02-05T03:59:42.880Z,9.85
2024-02-05T04:00:41.019Z,9.90
2024-02-05T04:01:38.908Z,9.97
2024-02-05T04:02:37.622Z,9.90
2024-02-05T04:03:35.291Z,9.91
2024-02-05T04:04:34.017Z,9.94
2024-02-05T04:05:33.239Z,10.00
2024-02-05T04:06:31.566Z,10.00
2024-02-05T04:07:28.913Z,9.96
2024-02-05T04:08:26.500Z,9.94
2024-02-05T04:09:24.233Z,9.97
2024-02-05T04:10:22.567Z,9.99
2024-02-05T04:11:20.193Z,10.01
2024-02-05T04:12:18.203Z,10.05
2024-02-05T04:13:15.957Z,10.04
2024-02-05T04:14:13.999Z,10.12
2024-02-05T04:15:11.759Z,10.12
2024-02-05T04:16:15.205Z,10.12
2024-02-05T04:17:13.355Z,10.18
2024-02-05T04:18:11.650Z,10.19
2024-02-05T04:19:09.820Z,10.13
2024-02-05T04:20:08.516Z,10.12
2024-02-05T04:21:06.766Z,10.21
2024-02-05T04:22:05.179Z,10.24
2024-02-05T04:23:06.703Z,10.21
2024-02-05T04:24:05.354Z,10.23
2024-02-05T04:25:03.150Z,10.20
2024-02-05T04:26:02.059Z,10.19
2024-02-05T04:26:59.905Z,10.23
2024-02-05T04:27:57.959Z,10.20
2024-02-05T04:28:55.567Z,10.22
2024-02-05T04:29:54.232Z,10.20
2024-02-05T04:30:52.080Z,10.23
2024-02-05T04:31:50.868Z,10.05
2024-02-05T04:32:48.266Z,10.12
2024-02-05T04:33:46.451Z,10.14
2024-02-05T04:34:45.050Z,10.25
2024-02-05T04:35:42.752Z,10.21
2024-02-05T04:36:40.613Z,10.24
2024-02-05T04:37:39.898Z,10.23
2024-02-05T04:38:37.654Z,10.28
2024-02-05T04:39:35.617Z,10.28
2024-02-05T04:40:33.635Z,10.35
2024-02-05T04:41:31.385Z,10.27
2024-02-05T04:42:29.690Z,10.29
2024-02-05T04:43:27.349Z,10.36
2024-02-05T04:44:25.020Z,10.40
2024-02-05T04:45:22.935Z,10.35
2024-02-05T04:46:20.725Z,10.33
2024-02-05T04:47:18.658Z,10.32
2024-02-05T04:48:21.587Z,10.37
2024-02-05T04:49:20.223Z,10.42
2024-02-05T04:50:18.369Z,10.34
2024-02-05T04:51:16.173Z,10.35
2024-02-05T04:52:14.047Z,10.38
2024-02-05T04:53:12.181Z,10.36
2024-02-05T04:54:10.293Z,10.37
2024-02-05T04:55:08.715Z,10.39
2024-02-05T04:56:06.172Z,10.38
2024-02-05T04:57:04.282Z,10.29
2024-02-05T04:58:02.090Z,10.17
2024-02-05T04:59:00.243Z,10.26
2024-02-05T04:59:58.283Z,10.22
2024-02-05T05:00:56.246Z,10.32
2024-02-05T05:01:54.374Z,10.28
2024-02-05T05:02:53.079Z,10.29
2024-02-05T05:03:50.988Z,10.29
2024-02-05T05:04:48.649Z,10.33
2024-02-05T05:05:46.076Z,10.31
2024-02-05T05:06:44.949Z,10.39
2024-02-05T05:07:42.345Z,10.38
2024-02-05T05:08:39.597Z,10.40
2024-02-05T05:09:38.074Z,10.40
2024-02-05T05:10:36.914Z,10.45
2024-02-05T05:11:34.175Z,10.49
2024-02-05T05:12:31.552Z,10.43
2024-02-05T05:13:28.907Z,10.40
2024-02-05T05:14:26.432Z,10.37
2024-02-05T05:15:23.694Z,10.36
2024-02-05T05:16:21.163Z,10.42
2024-02-05T05:17:18.633Z,10.52
2024-02-05T05:18:16.438Z,10.54
2024-02-05T05:19:14.014Z,10.50
2024-02-05T05:20:12.825Z,10.46
2024-02-05T05:21:10.065Z,10.51
2024-02-05T05:22:07.415Z,10.53
2024-02-05T05:23:04.801Z,10.54
2024-02-05T05:24:01.926Z,10.54
2024-02-05T05:24:59.664Z,10.54
2024-02-05T05:25:57.481Z,10.62
2024-02-05T05:26:55.199Z,10.71
2024-02-05T05:27:53.765Z,10.73
2024-02-05T05:28:52.625Z,10.71
2024-02-05T05:29:50.886Z,10.75
2024-02-05T05:30:48.819Z,10.75
2024-02-05T05:31:46.592Z,10.76
2024-02-05T05:32:44.408Z,10.78
2024-02-05T05:33:42.344Z,10.81
2024-02-05T05:34:40.049Z,10.84
2024-02-05T05:35:39.462Z,10.84
2024-02-05T05:36:37.272Z,10.79
2024-02-05T05:37:34.813Z,10.82
2024-02-05T05:38:32.134Z,10.82
2024-02-05T05:39:29.404Z,10.91
2024-02-05T05:40:26.792Z,10.93
2024-02-05T05:41:24.212Z,10.92
2024-02-05T05:42:22.332Z,10.97
2024-02-05T05:43:19.755Z,10.97
2024-02-05T05:44:16.882Z,11.04
2024-02-05T05:45:14.387Z,11.13
2024-02-05T05:46:11.482Z,11.12
2024-02-05T05:47:08.569Z,11.15
2024-02-05T05:48:07.509Z,11.26
2024-02-05T05:49:04.936Z,11.39
2024-02-05T05:50:02.658Z,11.39
2024-02-05T05:51:00.015Z,11.49
2024-02-05T05:51:58.255Z,11.53
2024-02-05T05:52:56.151Z,11.57
2024-02-05T05:53:54.156Z,11.53
2024-02-05T05:54:51.801Z,11.56
2024-02-05T05:55:51.003Z,11.58
2024-02-05T05:56:48.533Z,11.61
2024-02-05T05:57:46.794Z,11.78
2024-02-05T05:58:44.116Z,11.78
2024-02-05T05:59:43.093Z,11.73
2024-02-05T06:00:40.595Z,11.68
2024-02-05T06:01:38.053Z,11.64
2024-02-05T06:02:35.805Z,11.59
2024-02-05T06:03:34.162Z,11.60
2024-02-05T06:04:32.641Z,11.58
2024-02-05T06:05:30.384Z,11.54
2024-02-05T06:06:28.834Z,11.53
2024-02-05T06:07:26.269Z,11.46
2024-02-05T06:08:24.176Z,11.47
2024-02-05T06:09:22.660Z,11.44
2024-02-05T06:10:20.460Z,11.44
2024-02-05T06:11:18.544Z,11.47
2024-02-05T06:12:17.235Z,11.43
2024-02-05T06:13:15.300Z,11.45
2024-02-05T06:14:13.431Z,11.41
2024-02-05T06:15:11.310Z,11.33
2024-02-05T06:16:12.574Z,11.33
2024-02-05T06:17:10.119Z,11.35
2024-02-05T06:18:09.019Z,11.36
2024-02-05T06:19:07.402Z,11.27
2024-02-05T06:20:07.535Z,11.26
2024-02-05T06:21:08.133Z,11.27
2024-02-05T06:22:05.405Z,11.29
2024-02-05T06:23:02.843Z,11.27
2024-02-05T06:24:00.362Z,11.29
2024-02-05T06:24:57.692Z,11.31
2024-02-05T06:25:54.921Z,11.29
2024-02-05T06:26:52.083Z,11.30
2024-02-05T06:27:49.579Z,11.29
2024-02-05T06:28:47.334Z,11.29
2024-02-05T06:29:45.253Z,11.26
2024-02-05T06:30:47.344Z,11.22
2024-02-05T06:31:44.550Z,11.24
2024-02-05T06:32:42.270Z,11.27
2024-02-05T06:33:39.932Z,11.25
2024-02-05T06:34:37.437Z,11.22
2024-02-05T06:35:34.662Z,11.21
2024-02-05T06:36:31.875Z,11.19
2024-02-05T06:37:29.093Z,11.23
2024-02-05T06:38:26.261Z,11.26
2024-02-05T06:39:23.662Z,11.27
2024-02-05T06:40:23.820Z,11.31
2024-02-05T06:41:21.405Z,11.33
2024-02-05T06:42:18.742Z,11.31
2024-02-05T06:43:16.082Z,11.26
2024-02-05T06:44:13.312Z,11.30
2024-02-05T06:45:11.730Z,11.30
2024-02-05T06:46:09.147Z,11.32
2024-02-05T06:47:06.642Z,11.27
2024-02-05T06:48:04.618Z,11.32
2024-02-05T06:49:02.228Z,11.35
2024-02-05T06:50:00.157Z,11.33
2024-02-05T06:50:57.885Z,11.30
2024-02-05T06:51:55.926Z,11.33
2024-02-05T06:52:54.456Z,11.27
2024-02-05T06:53:52.014Z,11.26
2024-02-05T06:54:50.753Z,11.27
2024-02-05T06:55:48.314Z,11.28
2024-02-05T06:56:48.338Z,11.23
2024-02-05T06:57:46.681Z,11.26
2024-02-05T06:58:44.128Z,11.26
2024-02-05T06:59:41.295Z,11.21
2024-02-05T07:00:38.550Z,11.23
2024-02-05T07:01:36.026Z,11.22
2024-02-05T07:02:33.524Z,11.19
2024-02-05T07:03:30.686Z,11.21
2024-02-05T07:04:28.232Z,11.26
2024-02-05T07:05:25.619Z,11.28
2024-02-05T07:06:23.118Z,11.28
2024-02-05T07:07:20.504Z,11.23
2024-02-05T07:08:18.190Z,11.27
2024-02-05T07:09:15.357Z,11.24
2024-02-05T07:10:12.655Z,11.28
2024-02-05T07:11:10.008Z,11.29
2024-02-05T07:12:08.671Z,11.30
2024-02-05T07:13:06.229Z,11.32
2024-02-05T07:14:03.325Z,11.32
2024-02-05T07:15:00.905Z,11.32
2024-02-05T07:15:58.019Z,11.30
2024-02-05T07:16:55.474Z,11.32
2024-02-05T07:17:53.652Z,11.33
2024-02-05T07:18:51.092Z,11.35
2024-02-05T07:19:48.595Z,11.34
2024-02-05T07:20:45.921Z,11.33
2024-02-05T07:21:43.357Z,11.41
2024-02-05T07:22:40.716Z,11.44
2024-02-05T07:23:38.086Z,11.48
2024-02-05T07:24:35.577Z,11.46
2024-02-05T07:25:33.159Z,11.47
2024-02-05T07:26:35.360Z,11.48
2024-02-05T07:27:33.092Z,11.49
2024-02-05T07:28:30.389Z,11.51
2024-02-05T07:29:27.616Z,11.54
2024-02-05T07:30:24.880Z,11.60
2024-02-05T07:31:22.152Z,11.55
2024-02-05T07:32:19.811Z,11.57
2024-02-05T07:33:17.080Z,11.62
2024-02-05T07:34:14.762Z,11.59
2024-02-05T07:35:12.435Z,11.59
2024-02-05T07:36:10.779Z,11.65
2024-02-05T07:37:08.074Z,11.65
2024-02-05T07:38:05.601Z,11.67
2024-02-05T07:39:07.697Z,11.69
2024-02-05T07:40:06.038Z,11.71
2024-02-05T07:41:03.319Z,11.70
2024-02-05T07:42:01.144Z,11.73
2024-02-05T07:42:58.491Z,11.76
2024-02-05T07:43:55.800Z,11.75
2024-02-05T07:44:53.258Z,11.76
2024-02-05T07:45:50.687Z,11.77
2024-02-05T07:46:48.070Z,11.80
2024-02-05T07:47:45.321Z,11.80
2024-02-05T07:48:42.669Z,11.75
2024-02-05T07:49:42.348Z,11.78
2024-02-05T07:50:39.597Z,11.77
2024-02-05T07:51:47.919Z,11.79
2024-02-05T07:52:45.548Z,11.77
2024-02-05T07:53:42.805Z,11.81
2024-02-05T07:54:39.998Z,11.81
2024-02-05T07:55:37.465Z,11.84
2024-02-05T07:56:34.708Z,11.83
2024-02-05T07:57:31.732Z,11.84
2024-02-05T07:58:29.026Z,11.85
2024-02-05T07:59:26.325Z,11.90
2024-02-05T08:00:23.820Z,11.90
2024-02-05T08:01:21.152Z,11.95
2024-02-05T08:02:18.369Z,11.90
2024-02-05T08:03:15.891Z,11.92
2024-02-05T08:04:13.144Z,11.93
2024-02-05T08:05:11.264Z,11.97
2024-02-05T08:06:09.438Z,11.99
2024-02-05T08:07:08.707Z,11.95
2024-02-05T08:08:06.297Z,11.95
2024-02-05T08:09:05.930Z,11.93
2024-02-05T08:10:03.182Z,11.93
2024-02-05T08:11:00.589Z,11.91
2024-02-05T08:11:57.784Z,11.84
2024-02-05T08:12:55.152Z,11.87
2024-02-05T08:13:53.883Z,11.92
2024-02-05T08:14:51.126Z,11.90
2024-02-05T08:15:48.635Z,11.91
2024-02-05T08:16:46.012Z,11.86
2024-02-05T08:17:43.127Z,11.89
2024-02-05T08:18:40.495Z,11.91
2024-02-05T08:19:37.870Z,11.90
2024-02-05T08:20:35.159Z,11.92
2024-02-05T08:21:32.529Z,11.92
2024-02-05T08:22:32.513Z,11.93
2024-02-05T08:23:29.847Z,11.90
2024-02-05T08:24:27.238Z,11.93
2024-02-05T08:25:25.499Z,11.93
2024-02-05T08:26:22.689Z,11.94
2024-02-05T08:27:19.927Z,11.89
2024-02-05T08:28:17.250Z,11.84
2024-02-05T08:29:14.461Z,11.91
2024-02-05T08:30:12.407Z,11.97
2024-02-05T08:31:09.779Z,11.97
2024-02-05T08:32:07.743Z,11.94
2024-02-05T08:33:05.837Z,12.00
2024-02-05T08:34:04.458Z,12.01
2024-02-05T08:35:02.741Z,11.97
2024-02-05T08:36:00.570Z,11.98
2024-02-05T08:36:58.442Z,12.01
2024-02-05T08:37:56.263Z,12.05
2024-02-05T08:38:54.336Z,12.08
2024-02-05T08:39:52.084Z,12.13
2024-02-05T08:40:49.893Z,12.11
2024-02-05T08:41:47.210Z,12.13
2024-02-05T08:42:44.786Z,12.13
2024-02-05T08:43:42.571Z,12.18
2024-02-05T08:44:40.301Z,12.20
2024-02-05T08:45:38.240Z,12.22
2024-02-05T08:46:35.866Z,12.30
2024-02-05T08:47:34.274Z,12.26
2024-02-05T08:48:33.435Z,12.33
2024-02-05T08:49:31.108Z,12.40
2024-02-05T08:50:35.944Z,12.44
2024-02-05T08:51:35.617Z,12.45
2024-02-05T08:52:33.415Z,12.45
2024-02-05T08:53:31.223Z,12.49
2024-02-05T08:54:29.148Z,12.51
2024-02-05T08:55:26.899Z,12.53
2024-02-05T08:56:24.520Z,12.54
2024-02-05T08:57:21.885Z,12.55
2024-02-05T08:58:19.659Z,12.53
2024-02-05T08:59:17.233Z,12.55
2024-02-05T09:00:15.705Z,12.58
2024-02-05T09:01:13.187Z,12.57
2024-02-05T09:02:11.371Z,12.61
2024-02-05T09:03:12.006Z,12.63
2024-02-05T09:04:10.468Z,12.66
2024-02-05T09:05:09.045Z,12.63
2024-02-05T09:06:06.672Z,12.58
2024-02-05T09:07:04.715Z,12.57
2024-02-05T09:08:02.585Z,12.57
2024-02-05T09:09:00.932Z,12.55
2024-02-05T09:09:58.632Z,12.56
2024-02-05T09:10:56.154Z,12.56
2024-02-05T09:12:01.620Z,12.58
2024-02-05T09:13:04.316Z,12.58
2024-02-05T09:14:02.595Z,12.59
2024-02-05T09:15:00.572Z,12.58
2024-02-05T09:15:58.398Z,12.58
2024-02-05T09:16:56.890Z,12.60
2024-02-05T09:17:54.454Z,12.58
2024-02-05T09:18:52.412Z,12.57
2024-02-05T09:19:50.620Z,12.59
2024-02-05T09:20:48.351Z,12.58
2024-02-05T09:21:46.050Z,12.57
2024-02-05T09:22:49.833Z,12.60
2024-02-05T09:23:47.593Z,12.60
2024-02-05T09:24:46.018Z,12.61
2024-02-05T09:25:43.851Z,12.60
2024-02-05T09:26:42.033Z,12.72
2024-02-05T09:27:39.653Z,12.75
2024-02-05T09:28:38.633Z,12.78
2024-02-05T09:29:36.608Z,12.79
2024-02-05T09:30:34.272Z,12.80
2024-02-05T09:31:32.334Z,12.79
2024-02-05T09:32:30.202Z,12.79
2024-02-05T09:33:27.686Z,12.84
2024-02-05T09:34:25.562Z,12.84
2024-02-05T09:35:23.505Z,12.86
2024-02-05T09:36:21.573Z,12.91
2024-02-05T09:37:19.647Z,12.90
2024-02-05T09:38:16.863Z,12.88
2024-02-05T09:39:14.076Z,12.93
2024-02-05T09:40:11.609Z,12.95
2024-02-05T09:41:11.498Z,12.94
2024-02-05T09:42:12.761Z,12.93
2024-02-05T09:43:10.246Z,13.00
2024-02-05T09:44:07.952Z,13.03
2024-02-05T09:45:06.496Z,13.06
2024-02-05T09:46:09.916Z,13.09
2024-02-05T09:47:14.159Z,13.10
2024-02-05T09:48:16.586Z,13.13
2024-02-05T09:49:22.586Z,13.13
2024-02-05T09:50:19.966Z,13.13
2024-02-05T09:51:18.733Z,13.17
2024-02-05T09:52:19.382Z,13.22
2024-02-05T09:53:17.300Z,13.20
2024-02-05T09:54:22.283Z,13.25
2024-02-05T09:55:21.362Z,13.28
2024-02-05T09:56:19.529Z,13.30
2024-02-05T09:57:18.666Z,13.27
2024-02-05T09:58:17.125Z,13.31
2024-02-05T09:59:14.414Z,13.30
2024-02-05T10:00:12.591Z,13.33
2024-02-05T10:01:12.182Z,13.33
2024-02-05T10:02:13.732Z,13.38
2024-02-05T10:03:15.864Z,13.39
2024-02-05T10:04:15.464Z,13.44
2024-02-05T10:05:17.842Z,13.46
2024-02-05T10:06:19.850Z,13.48
2024-02-05T10:07:19.259Z,13.51
2024-02-05T10:08:17.540Z,13.51
2024-02-05T10:09:15.295Z,13.53
2024-02-05T10:10:13.400Z,13.53
2024-02-05T10:11:12.125Z,13.54
2024-02-05T10:12:13.467Z,13.54
2024-02-05T10:13:11.186Z,13.53
2024-02-05T10:14:08.540Z,13.52
2024-02-05T10:15:09.763Z,13.48
2024-02-05T10:16:07.141Z,13.52
2024-02-05T10:17:06.042Z,13.55
2024-02-05T10:18:04.072Z,13.48
2024-02-05T10:19:01.445Z,13.50
2024-02-05T10:20:01.170Z,13.55
2024-02-05T10:20:58.612Z,13.57
2024-02-05T10:21:57.844Z,13.62
2024-02-05T10:22:55.199Z,13.63
2024-02-05T10:23:54.232Z,13.69
2024-02-05T10:24:51.679Z,13.68
2024-02-05T10:25:48.841Z,13.65
2024-02-05T10:26:46.098Z,13.62
2024-02-05T10:27:43.920Z,13.57
2024-02-05T10:28:41.411Z,13.54
2024-02-05T10:29:40.672Z,13.54
2024-02-05T10:30:37.847Z,13.53
2024-02-05T10:31:35.343Z,13.50
2024-02-05T10:32:34.753Z,13.51
2024-02-05T10:33:32.282Z,13.58
2024-02-05T10:34:29.975Z,13.64
2024-02-05T10:35:28.460Z,13.62
2024-02-05T10:36:25.991Z,13.62
2024-02-05T10:37:24.255Z,13.62
2024-02-05T10:38:25.094Z,13.62
2024-02-05T10:39:25.583Z,13.62
2024-02-05T10:40:23.223Z,13.58
2024-02-05T10:41:23.389Z,13.57
2024-02-05T10:42:22.582Z,13.55
2024-02-05T10:43:20.194Z,13.54
2024-02-05T10:44:29.767Z,13.50
2024-02-05T10:45:41.620Z,13.51
2024-02-05T10:46:43.082Z,13.51
2024-02-05T10:47:40.349Z,13.49
2024-02-05T10:48:38.900Z,13.45
2024-02-05T10:49:39.944Z,13.43
2024-02-05T10:50:37.752Z,13.41
2024-02-05T10:51:39.213Z,13.39
2024-02-05T10:52:39.393Z,13.40
2024-02-05T10:53:42.263Z,13.41
2024-02-05T10:54:43.208Z,13.44
2024-02-05T10:55:43.478Z,13.45
2024-02-05T10:56:44.475Z,13.46
2024-02-05T10:57:46.030Z,13.50
2024-02-05T10:58:46.218Z,13.50
2024-02-05T10:59:46.192Z,13.51
2024-02-05T11:00:47.008Z,13.56
2024-02-05T11:01:47.804Z,13.58
2024-02-05T11:02:48.391Z,13.60
2024-02-05T11:03:49.381Z,13.62
2024-02-05T11:04:48.598Z,13.64
2024-02-05T11:05:53.236Z,13.63
2024-02-05T11:06:54.273Z,13.66
2024-02-05T11:07:57.200Z,13.66
2024-02-05T11:08:54.832Z,13.62
2024-02-05T11:09:52.635Z,13.63
2024-02-05T11:10:52.984Z,13.67
2024-02-05T11:11:51.550Z,13.67
2024-02-05T11:12:50.795Z,13.74
2024-02-05T11:13:57.535Z,13.75
2024-02-05T11:14:58.112Z,13.75
2024-02-05T11:15:59.452Z,13.73
2024-02-05T11:16:58.719Z,13.66
2024-02-05T11:17:58.424Z,13.64
2024-02-05T11:18:57.306Z,13.61
2024-02-05T11:19:56.001Z,13.59
2024-02-05T11:20:54.829Z,13.58
2024-02-05T11:21:56.449Z,13.54
2024-02-05T11:22:57.175Z,13.57
2024-02-05T11:23:55.709Z,13.57
2024-02-05T11:24:53.084Z,13.55
2024-02-05T11:25:51.695Z,13.54
2024-02-05T11:26:52.224Z,13.52
2024-02-05T11:27:49.639Z,13.52
2024-02-05T11:28:55.178Z,13.56
2024-02-05T11:29:53.301Z,13.54
2024-02-05T11:30:50.629Z,13.52
2024-02-05T11:31:47.832Z,13.52
2024-02-05T11:32:45.042Z,13.53
2024-02-05T11:33:43.349Z,13.58
2024-02-05T11:34:44.434Z,13.60
2024-02-05T11:35:50.785Z,13.58
2024-02-05T11:36:48.498Z,13.61
2024-02-05T11:37:46.082Z,13.60
2024-02-05T11:38:43.641Z,13.63
2024-02-05T11:39:47.438Z,13.62
2024-02-05T11:40:44.704Z,13.64
2024-02-05T11:41:42.055Z,13.68
2024-02-05T11:42:39.246Z,13.68
2024-02-05T11:43:36.616Z,13.75
2024-02-05T11:44:34.158Z,13.75
2024-02-05T11:45:34.360Z,13.74
2024-02-05T11:46:31.823Z,13.72
2024-02-05T11:47:29.292Z,13.73
2024-02-05T11:48:26.620Z,13.72
2024-02-05T11:49:37.927Z,13.75
2024-02-05T11:50:35.746Z,13.78
2024-02-05T11:51:33.351Z,13.77
2024-02-05T11:52:35.583Z,13.77
2024-02-05T11:53:32.815Z,13.75
2024-02-05T11:54:31.562Z,13.71
2024-02-05T11:55:29.386Z,13.74
2024-02-05T11:56:26.833Z,13.76
2024-02-05T11:57:25.563Z,13.78
2024-02-05T11:58:22.753Z,13.74
2024-02-05T11:59:20.265Z,13.74
2024-02-05T12:00:18.165Z,13.73
2024-02-05T12:01:16.882Z,13.71
2024-02-05T12:02:14.707Z,13.67
2024-02-05T12:03:14.071Z,13.69
2024-02-05T12:04:11.908Z,13.69
2024-02-05T12:05:09.408Z,13.72
2024-02-05T12:06:07.078Z,13.66
2024-02-05T12:07:04.770Z,13.69
2024-02-05T12:08:02.700Z,13.71
2024-02-05T12:09:01.373Z,13.69
2024-02-05T12:09:58.732Z,13.66
2024-02-05T12:10:56.129Z,13.70
2024-02-05T12:11:53.557Z,13.69
2024-02-05T12:12:50.999Z,13.69
2024-02-05T12:13:57.749Z,13.68
2024-02-05T12:14:56.588Z,13.66
2024-02-05T12:15:54.199Z,13.66
2024-02-05T12:16:51.628Z,13.62
2024-02-05T12:17:49.786Z,13.64
2024-02-05T12:19:00.444Z,13.61
2024-02-05T12:20:07.823Z,13.59
2024-02-05T12:21:12.829Z,13.54
2024-02-05T12:22:10.981Z,13.52
2024-02-05T12:23:08.440Z,13.53
2024-02-05T12:24:08.980Z,13.51
2024-02-05T12:25:06.621Z,13.52
2024-02-05T12:26:04.568Z,13.49
2024-02-05T12:27:02.374Z,13.51
2024-02-05T12:28:00.425Z,13.48
2024-02-05T12:28:58.635Z,13.48
2024-02-05T12:30:09.390Z,13.48
2024-02-05T12:31:07.135Z,13.52
2024-02-05T12:32:06.595Z,13.48
2024-02-05T12:33:04.532Z,13.45
2024-02-05T12:34:03.017Z,13.46
2024-02-05T12:35:01.017Z,13.44
2024-02-05T12:36:02.004Z,13.44
2024-02-05T12:37:00.697Z,13.45
2024-02-05T12:37:59.259Z,13.41
2024-02-05T12:38:58.220Z,13.37
2024-02-05T12:39:57.220Z,13.39
2024-02-05T12:40:56.396Z,13.38
2024-02-05T12:41:54.568Z,13.39
2024-02-05T12:42:53.462Z,13.41